Time;durP1;ratioP1;P1;durP2;ratioP2;P2;SDS_P1;SDS_P2;PMS_P1;PMS_P2;Temp;Humidity;BMP_temperature;BMP_pressure;BME280_temperature;BME280_humidity;BME280_pressure;Samples;Min_cycle;Max_cycle;Signal;HPM_P1;HPM_P2
2021/09/03 00:00:33;;;;;;;14.73;6.10;;;;;;;10.25;100.00;94323.03;5075160;28;20670;-76
2021/09/03 00:03:01;;;;;;;10.73;6.53;;;;;;;10.08;100.00;94330.28;5074934;28;20203;-78
2021/09/03 00:05:27;;;;;;;12.47;7.10;;;;;;;10.21;100.00;94320.97;5075072;28;20210;-76
2021/09/03 00:07:53;;;;;;;12.23;6.43;;;;;;;10.22;100.00;94312.94;5075259;28;20199;-79
2021/09/03 00:10:21;;;;;;;11.30;6.30;;;;;;;10.13;100.00;94306.25;5074891;28;20801;-78
2021/09/03 00:12:48;;;;;;;12.23;6.53;;;;;;;9.96;100.00;94303.84;5074953;28;20581;-78
2021/09/03 00:15:15;;;;;;;12.30;6.47;;;;;;;9.91;100.00;94308.81;5074917;28;20206;-78
2021/09/03 00:17:43;;;;;;;12.70;6.73;;;;;;;10.00;100.00;94299.06;5074925;28;20199;-77
2021/09/03 00:20:13;;;;;;;12.27;6.63;;;;;;;10.03;100.00;94303.13;5075135;28;20211;-79
2021/09/03 00:22:40;;;;;;;12.68;6.93;;;;;;;9.86;100.00;94305.94;5074603;28;20438;-78
2021/09/03 00:25:08;;;;;;;13.70;7.00;;;;;;;9.89;100.00;94302.97;5074783;28;20207;-77
2021/09/03 00:27:35;;;;;;;10.77;7.00;;;;;;;9.86;100.00;94295.50;5074642;28;20653;-78
2021/09/03 00:30:01;;;;;;;15.03;6.60;;;;;;;9.86;100.00;94297.28;5074927;28;20203;-78
2021/09/03 00:32:28;;;;;;;12.73;6.47;;;;;;;9.78;100.00;94295.63;5074854;28;20231;-78
2021/09/03 00:34:54;;;;;;;16.53;8.10;;;;;;;9.93;100.00;94288.56;5074979;28;20203;-78
2021/09/03 00:37:22;;;;;;;16.27;6.67;;;;;;;9.82;100.00;94291.63;5074543;28;20199;-78
2021/09/03 00:39:49;;;;;;;16.10;6.60;;;;;;;9.81;100.00;94282.22;5074527;28;20205;-78
2021/09/03 00:42:16;;;;;;;11.40;6.70;;;;;;;9.69;100.00;94281.88;5074583;28;20198;-78
2021/09/03 00:44:42;;;;;;;11.67;6.93;;;;;;;9.72;100.00;94276.28;5074171;28;20198;-77
2021/09/03 00:47:09;;;;;;;14.70;7.33;;;;;;;9.71;100.00;94279.06;5074604;28;20199;-78
2021/09/03 00:49:36;;;;;;;12.33;7.57;;;;;;;9.64;100.00;94281.59;5073669;28;20210;-77
2021/09/03 00:52:05;;;;;;;14.50;7.20;;;;;;;9.50;100.00;94277.22;5074130;28;20219;-78
2021/09/03 00:54:33;;;;;;;10.17;6.50;;;;;;;9.40;100.00;94277.50;5074332;28;20202;-79
2021/09/03 00:56:59;;;;;;;15.63;7.83;;;;;;;9.67;100.00;94283.84;5074185;28;20592;-78
2021/09/03 00:59:26;;;;;;;15.40;7.37;;;;;;;9.59;100.00;94284.78;5074074;28;20206;-78
2021/09/03 01:01:53;;;;;;;13.47;7.67;;;;;;;9.50;100.00;94278.03;5074208;28;20205;-78
2021/09/03 01:04:19;;;;;;;14.43;8.23;;;;;;;9.41;100.00;94281.72;5073930;28;20500;-78
2021/09/03 01:06:46;;;;;;;13.97;7.70;;;;;;;9.41;100.00;94279.91;5073612;28;20198;-79
2021/09/03 01:09:12;;;;;;;15.20;8.13;;;;;;;9.55;100.00;94280.09;5073956;28;20199;-77
2021/09/03 01:11:40;;;;;;;13.93;7.43;;;;;;;9.60;100.00;94282.97;5073805;28;20199;-80
2021/09/03 01:14:07;;;;;;;15.93;7.63;;;;;;;9.62;100.00;94281.78;5073807;28;20207;-78
2021/09/03 01:16:33;;;;;;;14.73;7.33;;;;;;;9.58;100.00;94275.31;5073931;28;20252;-78
2021/09/03 01:19:00;;;;;;;15.83;7.23;;;;;;;9.45;100.00;94275.16;5073881;28;20256;-78
2021/09/03 01:21:27;;;;;;;13.00;7.23;;;;;;;9.30;100.00;94271.75;5073857;28;20289;-81
2021/09/03 01:23:55;;;;;;;17.30;7.70;;;;;;;9.33;100.00;94277.41;5073604;28;20205;-78
2021/09/03 01:26:21;;;;;;;13.83;7.67;;;;;;;9.25;100.00;94274.88;5073565;28;20658;-80
2021/09/03 01:28:48;;;;;;;12.10;7.17;;;;;;;9.16;100.00;94271.56;5073197;28;20592;-80
2021/09/03 01:31:14;;;;;;;15.77;8.33;;;;;;;9.36;100.00;94277.06;5073445;28;20277;-79
2021/09/03 01:33:41;;;;;;;19.57;8.90;;;;;;;9.33;100.00;94263.56;5073536;28;20226;-79
2021/09/03 01:36:08;;;;;;;15.60;8.07;;;;;;;9.26;100.00;94266.09;5073341;28;20620;-79
2021/09/03 01:38:34;;;;;;;14.77;8.17;;;;;;;9.29;100.00;94259.69;5073538;28;20203;-80
2021/09/03 01:41:02;;;;;;;15.87;8.33;;;;;;;9.45;100.00;94259.50;5073228;28;20195;-79
2021/09/03 01:43:28;;;;;;;12.93;7.37;;;;;;;9.46;100.00;94248.13;5073471;28;20206;-79
2021/09/03 01:45:55;;;;;;;17.67;8.40;;;;;;;9.36;100.00;94248.38;5073021;28;20231;-79
2021/09/03 01:48:21;;;;;;;14.47;7.93;;;;;;;9.37;100.00;94244.78;5071234;28;20596;-78
2021/09/03 01:50:48;;;;;;;16.10;8.43;;;;;;;9.40;100.00;94247.03;5073032;28;20198;-79
2021/09/03 01:53:14;;;;;;;17.97;8.87;;;;;;;9.45;100.00;94246.47;5073116;28;20262;-79
2021/09/03 01:55:41;;;;;;;16.30;8.67;;;;;;;9.32;100.00;94244.50;5073061;28;20202;-81
2021/09/03 01:58:08;;;;;;;14.47;8.23;;;;;;;9.22;100.00;94241.38;5072916;28;20199;-80
2021/09/03 02:00:35;;;;;;;17.90;8.13;;;;;;;8.98;100.00;94245.06;5073212;28;20205;-79
2021/09/03 02:03:01;;;;;;;16.73;7.30;;;;;;;8.79;100.00;94243.78;5071950;28;20281;-81
2021/09/03 02:05:28;;;;;;;15.50;8.37;;;;;;;8.75;100.00;94240.72;5073148;28;20199;-79
2021/09/03 02:07:54;;;;;;;14.30;8.10;;;;;;;8.86;100.00;94235.09;5073073;28;20198;-80
2021/09/03 02:10:21;;;;;;;18.13;8.97;;;;;;;8.86;100.00;94235.09;5072933;28;20198;-81
2021/09/03 02:12:47;;;;;;;20.30;9.93;;;;;;;8.97;100.00;94228.63;5073149;28;20230;-80
2021/09/03 02:15:15;;;;;;;17.17;9.40;;;;;;;9.00;100.00;94230.06;5072737;28;20206;-80
2021/09/03 02:17:41;;;;;;;15.30;8.47;;;;;;;8.79;100.00;94233.38;5073048;28;20331;-80
2021/09/03 02:20:09;;;;;;;19.90;9.23;;;;;;;8.76;100.00;94226.72;5072962;28;20276;-81
2021/09/03 02:22:35;;;;;;;21.03;10.70;;;;;;;9.05;100.00;94215.50;5072632;28;20680;-80
2021/09/03 02:25:02;;;;;;;21.50;11.13;;;;;;;9.49;100.00;94218.25;5072731;28;20210;-80
2021/09/03 02:27:28;;;;;;;21.57;10.63;;;;;;;9.74;100.00;94216.13;5072538;28;20206;-80
2021/09/03 02:29:55;;;;;;;22.97;9.83;;;;;;;9.81;100.00;94224.84;5072936;28;20535;-81
2021/09/03 02:32:23;;;;;;;17.83;9.43;;;;;;;9.81;100.00;94217.81;5072768;28;20233;-80
2021/09/03 02:34:49;;;;;;;16.53;8.80;;;;;;;9.59;100.00;94222.22;5072729;28;20198;-80
2021/09/03 02:37:16;;;;;;;16.27;8.10;;;;;;;9.28;100.00;94222.44;5072567;28;20603;-80
2021/09/03 02:39:43;;;;;;;15.90;7.70;;;;;;;8.99;100.00;94231.88;5072663;28;20584;-79
2021/09/03 02:42:09;;;;;;;17.10;7.80;;;;;;;8.80;100.00;94235.78;5072828;28;20198;-82
2021/09/03 02:44:36;;;;;;;13.63;7.57;;;;;;;8.62;100.00;94237.91;5072381;28;20206;-79
2021/09/03 02:47:02;;;;;;;13.33;8.03;;;;;;;8.50;100.00;94245.34;5072639;28;20300;-81
2021/09/03 02:49:30;;;;;;;14.27;8.37;;;;;;;8.49;100.00;94243.72;5072643;28;20203;-80
2021/09/03 02:51:57;;;;;;;14.67;8.40;;;;;;;8.43;100.00;94249.66;5072456;28;20202;-79
2021/09/03 02:54:23;;;;;;;17.27;9.13;;;;;;;8.45;100.00;94250.28;5072392;28;20230;-79
2021/09/03 02:56:49;;;;;;;17.47;9.40;;;;;;;8.31;100.00;94246.59;5072156;28;20281;-80
2021/09/03 02:59:16;;;;;;;18.23;9.17;;;;;;;8.36;100.00;94244.31;5072612;28;20557;-79
2021/09/03 03:01:42;;;;;;;17.93;9.53;;;;;;;8.51;100.00;94247.78;5072577;28;20199;-79
2021/09/03 03:04:09;;;;;;;17.90;9.97;;;;;;;8.54;100.00;94232.78;5072473;28;20206;-78
2021/09/03 03:06:36;;;;;;;16.53;9.53;;;;;;;8.42;100.00;94242.78;5071953;28;20203;-82
2021/09/03 03:09:03;;;;;;;24.33;9.67;;;;;;;8.32;100.00;94243.00;5072581;28;20207;-80
2021/09/03 03:11:29;;;;;;;19.53;9.10;;;;;;;8.20;100.00;94239.22;5072476;28;20203;-79
2021/09/03 03:14:02;;;;;;;16.87;9.53;;;;;;;8.43;100.00;94240.03;5074380;28;20296;-80
2021/09/03 03:16:29;;;;;;;21.27;10.57;;;;;;;8.52;100.00;94243.38;5075823;28;20260;-80
2021/09/03 03:18:55;;;;;;;24.90;11.60;;;;;;;8.60;100.00;94232.88;5075799;28;20202;-79
2021/09/03 03:21:22;;;;;;;31.23;12.27;;;;;;;8.72;100.00;94225.47;5075845;28;20206;-78
2021/09/03 03:23:50;;;;;;;23.67;10.27;;;;;;;8.52;100.00;94236.38;5076056;28;20211;-79
2021/09/03 03:26:16;;;;;;;16.40;8.70;;;;;;;8.25;100.00;94232.50;5076033;28;20205;-79
2021/09/03 03:28:42;;;;;;;16.33;9.03;;;;;;;8.12;100.00;94238.28;5075842;28;20203;-79
2021/09/03 03:31:09;;;;;;;17.47;8.60;;;;;;;7.94;100.00;94232.56;5075588;28;20778;-78
2021/09/03 03:33:35;;;;;;;15.20;7.80;;;;;;;7.82;100.00;94237.34;5075536;28;20227;-78
2021/09/03 03:36:02;;;;;;;21.93;10.47;;;;;;;7.98;100.00;94231.25;5075846;28;20195;-77
2021/09/03 03:38:28;;;;;;;23.27;11.30;;;;;;;8.20;100.00;94228.81;5075850;28;20236;-77
2021/09/03 03:40:56;;;;;;;19.23;9.97;;;;;;;8.06;100.00;94227.75;5075738;28;20203;-78
2021/09/03 03:43:22;;;;;;;22.50;10.57;;;;;;;8.07;100.00;94219.78;5075360;28;20566;-79
2021/09/03 03:45:49;;;;;;;22.30;10.27;;;;;;;8.15;100.00;94216.31;5075372;28;20628;-79
2021/09/03 03:48:15;;;;;;;25.90;11.03;;;;;;;8.07;100.00;94219.78;5075470;28;20202;-78
2021/09/03 03:50:41;;;;;;;23.10;10.77;;;;;;;7.97;100.00;94214.00;5075429;28;20263;-78
2021/09/03 03:53:11;;;;;;;22.70;10.07;;;;;;;7.82;100.00;94213.16;5075316;28;20234;-78
2021/09/03 03:55:37;;;;;;;20.53;9.47;;;;;;;7.70;100.00;94215.34;5075319;28;20725;-78
2021/09/03 03:58:05;;;;;;;17.70;9.37;;;;;;;7.63;100.00;94217.81;5074994;28;20201;-79
2021/09/03 04:00:32;;;;;;;18.77;10.17;;;;;;;7.59;100.00;94213.91;5075134;28;20199;-77
2021/09/03 04:02:58;;;;;;;26.03;12.30;;;;;;;7.95;100.00;94208.19;5075209;28;20213;-77
2021/09/03 04:05:24;;;;;;;30.50;12.73;;;;;;;8.00;100.00;94205.06;5075519;28;20203;-77
2021/09/03 04:07:51;;;;;;;28.40;12.10;;;;;;;7.98;100.00;94207.84;5075290;28;20203;-79
2021/09/03 04:10:18;;;;;;;24.87;11.23;;;;;;;7.77;100.00;94204.06;5074831;28;20280;-79
2021/09/03 04:12:44;;;;;;;23.73;11.33;;;;;;;7.70;100.00;94204.94;5074783;28;20238;-79
2021/09/03 04:15:12;;;;;;;21.63;10.87;;;;;;;7.64;100.00;94203.81;5075021;28;20206;-79
2021/09/03 04:17:39;;;;;;;28.60;12.30;;;;;;;7.77;100.00;94204.06;5075028;28;20207;-80
2021/09/03 04:20:07;;;;;;;24.17;12.73;;;;;;;7.84;100.00;94192.97;5078399;28;20198;-78
2021/09/03 04:22:33;;;;;;;23.77;11.97;;;;;;;7.83;100.00;94204.34;5081022;28;20203;-78
2021/09/03 04:25:00;;;;;;;24.80;12.03;;;;;;;7.75;100.00;94195.63;5078998;28;20661;-80
2021/09/03 04:27:26;;;;;;;25.63;11.97;;;;;;;7.68;100.00;94199.13;5074712;28;20233;-79
2021/09/03 04:29:53;;;;;;;31.80;12.17;;;;;;;7.69;100.00;94198.91;5074714;28;20203;-79
2021/09/03 04:32:20;;;;;;;27.87;12.53;;;;;;;7.75;100.00;94194.84;5074917;28;20199;-79
2021/09/03 04:34:47;;;;;;;29.70;13.27;;;;;;;7.85;100.00;94189.41;5074772;28;20226;-79
2021/09/03 04:37:13;;;;;;;31.40;14.60;;;;;;;7.94;100.00;94188.38;5074424;28;20252;-78
2021/09/03 04:39:40;;;;;;;32.83;14.50;;;;;;;8.04;100.00;94181.13;5074699;28;20406;-79
2021/09/03 04:42:06;;;;;;;33.70;15.03;;;;;;;8.30;100.00;94177.34;5074541;28;20207;-80
2021/09/03 04:44:33;;;;;;;31.87;14.50;;;;;;;8.24;100.00;94188.44;5074258;28;20207;-79
2021/09/03 04:46:59;;;;;;;40.10;16.67;;;;;;;8.35;100.00;94188.03;5074228;28;20203;-79
2021/09/03 04:49:27;;;;;;;29.33;14.43;;;;;;;8.26;100.00;94187.31;5074510;28;20264;-79
2021/09/03 04:51:54;;;;;;;23.27;12.20;;;;;;;7.99;100.00;94198.25;5074391;28;20194;-78
2021/09/03 04:54:20;;;;;;;24.10;11.83;;;;;;;7.71;100.00;94186.59;5074096;28;20223;-79
2021/09/03 04:56:46;;;;;;;24.70;11.93;;;;;;;7.74;100.00;94191.44;5073776;28;20202;-79
2021/09/03 04:59:13;;;;;;;24.67;12.93;;;;;;;7.72;100.00;94189.97;5074133;28;20206;-80
2021/09/03 05:01:39;;;;;;;25.30;12.43;;;;;;;7.64;100.00;94193.44;5074135;28;20220;-80
2021/09/03 05:04:06;;;;;;;29.90;13.50;;;;;;;7.65;100.00;94200.25;5074166;28;20195;-79
2021/09/03 05:06:34;;;;;;;32.60;14.53;;;;;;;7.72;100.00;94195.19;5073771;28;20248;-80
2021/09/03 05:09:00;;;;;;;31.50;14.70;;;;;;;7.71;100.00;94194.38;5073940;28;20194;-80
2021/09/03 05:11:26;;;;;;;32.30;13.57;;;;;;;7.59;100.00;94206.97;5073896;28;20546;-79
2021/09/03 05:13:53;;;;;;;30.83;14.27;;;;;;;7.80;100.00;94207.31;5073277;28;20222;-79
2021/09/03 05:16:19;;;;;;;28.73;13.17;;;;;;;7.67;100.00;94200.88;5074043;28;20206;-80
2021/09/03 05:18:46;;;;;;;35.13;14.33;;;;;;;7.76;100.00;94206.84;5073864;28;20199;-80
2021/09/03 05:21:12;;;;;;;31.53;14.70;;;;;;;7.91;100.00;94206.91;5073615;28;20195;-80
2021/09/03 05:23:40;;;;;;;33.17;14.37;;;;;;;8.01;100.00;94204.91;5073506;28;20206;-80
2021/09/03 05:26:06;;;;;;;33.47;15.00;;;;;;;7.97;100.00;94208.81;5073461;28;20210;-81
2021/09/03 05:28:33;;;;;;;27.93;13.30;;;;;;;7.88;100.00;94210.66;5073580;28;20195;-79
2021/09/03 05:30:59;;;;;;;36.47;15.47;;;;;;;8.04;100.00;94211.53;5073260;28;20203;-78
2021/09/03 05:33:26;;;;;;;36.50;16.10;;;;;;;8.17;100.00;94208.34;5073509;28;20229;-79
2021/09/03 05:35:52;;;;;;;35.67;15.80;;;;;;;8.24;100.00;94209.25;5073256;28;20646;-80
2021/09/03 05:38:18;;;;;;;37.40;16.10;;;;;;;8.27;100.00;94214.13;5073459;28;20205;-79
2021/09/03 05:40:46;;;;;;;32.97;15.37;;;;;;;8.27;100.00;94211.53;5072924;28;20205;-78
2021/09/03 05:43:13;;;;;;;41.13;16.10;;;;;;;8.31;100.00;94216.19;5073597;28;20206;-78
2021/09/03 05:45:40;;;;;;;30.47;14.03;;;;;;;8.24;100.00;94222.28;5073242;28;20597;-79
2021/09/03 05:48:06;;;;;;;32.07;13.87;;;;;;;8.17;100.00;94221.34;5073286;28;20589;-78
2021/09/03 05:50:33;;;;;;;24.93;12.93;;;;;;;8.13;100.00;94221.69;5073316;28;20203;-78
2021/09/03 05:52:59;;;;;;;31.70;14.07;;;;;;;8.11;100.00;94226.28;5073123;28;20224;-79
2021/09/03 05:55:26;;;;;;;24.50;12.67;;;;;;;8.13;100.00;94223.50;5073146;28;20199;-81
2021/09/03 05:57:54;;;;;;;32.53;14.60;;;;;;;8.23;100.00;94224.06;5072809;28;20661;-80
2021/09/03 06:00:21;;;;;;;34.07;14.93;;;;;;;8.28;100.00;94218.34;5073062;28;20683;-79
2021/09/03 06:02:47;;;;;;;44.57;16.53;;;;;;;8.38;100.00;94226.72;5073198;28;20203;-80
2021/09/03 06:05:13;;;;;;;40.27;17.23;;;;;;;8.60;100.00;94230.28;5073168;28;20669;-80
2021/09/03 06:07:40;;;;;;;38.30;16.27;;;;;;;8.73;100.00;94224.47;5072779;28;20210;-79
2021/09/03 06:10:08;;;;;;;41.50;16.57;;;;;;;8.77;100.00;94223.13;5073141;28;20199;-79
2021/09/03 06:12:35;;;;;;;38.17;15.60;;;;;;;8.79;100.00;94228.16;5072991;28;20195;-79
2021/09/03 06:15:04;;;;;;;38.03;16.70;;;;;;;8.86;100.00;94235.09;5072711;28;20226;-79
2021/09/03 06:17:30;;;;;;;38.67;15.43;;;;;;;8.87;100.00;94231.47;5072985;28;20199;-79
2021/09/03 06:19:57;;;;;;;40.77;17.37;;;;;;;8.97;100.00;94227.81;5072963;28;20206;-79
2021/09/03 06:22:23;;;;;;;38.70;17.63;;;;;;;9.03;100.00;94224.50;5072685;28;20569;-82
2021/09/03 06:24:49;;;;;;;35.47;15.97;;;;;;;9.14;100.00;94220.63;5072714;28;20203;-80
2021/09/03 06:27:16;;;;;;;43.70;17.50;;;;;;;9.24;100.00;94227.19;5072945;28;20201;-80
2021/09/03 06:29:43;;;;;;;47.10;18.90;;;;;;;9.38;100.00;94227.34;5072923;28;20241;-80
2021/09/03 06:32:13;;;;;;;45.03;18.13;;;;;;;9.45;100.00;94230.84;5072855;28;20207;-81
2021/09/03 06:34:42;;;;;;;47.90;19.97;;;;;;;9.59;100.00;94235.25;5072605;28;20723;-81
2021/09/03 06:37:09;;;;;;;51.90;19.03;;;;;;;9.72;100.00;94239.78;5072667;28;20206;-81
2021/09/03 06:39:36;;;;;;;42.93;19.77;;;;;;;9.87;100.00;94231.91;5072884;28;20202;-80
2021/09/03 06:42:04;;;;;;;47.03;20.03;;;;;;;10.00;100.00;94226.84;5072522;28;20210;-81
2021/09/03 06:44:31;;;;;;;42.57;19.03;;;;;;;10.17;100.00;94221.38;5072751;28;20202;-80
2021/09/03 06:46:58;;;;;;;43.80;18.20;;;;;;;10.33;100.00;94218.53;5072408;28;20218;-80
2021/09/03 06:49:26;;;;;;;40.90;17.63;;;;;;;10.54;100.00;94212.50;5075029;28;20202;-79
2021/09/03 06:51:53;;;;;;;40.77;17.70;;;;;;;10.72;100.00;94213.81;5076748;28;20206;-79
2021/09/03 06:54:19;;;;;;;42.33;18.13;;;;;;;10.91;100.00;94213.16;5076310;28;20237;-79
2021/09/03 06:56:46;;;;;;;44.80;19.13;;;;;;;11.12;100.00;94214.06;5076581;28;20195;-79
2021/09/03 06:59:12;;;;;;;41.50;19.23;;;;;;;11.27;100.00;94212.16;5076590;28;20202;-78
2021/09/03 07:01:39;;;;;;;37.70;16.63;;;;;;;11.48;100.00;94206.00;5075989;28;20202;-79
2021/09/03 07:04:05;;;;;;;33.40;16.53;;;;;;;11.64;100.00;94214.50;5076328;28;20209;-78
2021/09/03 07:06:33;;;;;;;31.60;15.90;;;;;;;11.83;100.00;94213.78;5076493;28;20205;-79
2021/09/03 07:09:00;;;;;;;22.63;11.87;;;;;;;11.89;100.00;94217.44;5076045;28;20202;-78
2021/09/03 07:11:26;;;;;;;19.80;10.13;;;;;;;12.05;100.00;94221.50;5076316;28;20199;-80
2021/09/03 07:13:53;;;;;;;17.73;10.13;;;;;;;12.15;100.00;94214.06;5075881;28;20222;-77
2021/09/03 07:16:19;;;;;;;15.73;8.70;;;;;;;12.31;100.00;94219.94;5075789;28;20229;-80
2021/09/03 07:18:45;;;;;;;19.53;8.33;;;;;;;12.46;100.00;94225.78;5076192;28;20202;-79
2021/09/03 07:21:12;;;;;;;17.50;8.80;;;;;;;12.64;100.00;94227.00;5076125;28;20562;-79
2021/09/03 07:23:41;;;;;;;14.57;8.82;;;;;;;12.66;100.00;94217.94;5076097;28;20238;-79
2021/09/03 07:26:07;;;;;;;14.37;8.53;;;;;;;12.83;100.00;94213.09;5076001;28;20195;-78
2021/09/03 07:28:34;;;;;;;14.70;8.67;;;;;;;13.00;100.00;94220.53;5075420;28;20198;-79
2021/09/03 07:31:00;;;;;;;15.02;8.43;;;;;;;13.10;100.00;94220.91;5075910;28;20214;-79
2021/09/03 07:33:27;;;;;;;12.48;7.93;;;;;;;13.25;100.00;94228.53;5075945;28;20561;-77
2021/09/03 07:35:53;;;;;;;13.00;7.63;;;;;;;13.48;100.00;94230.72;5075832;28;20566;-77
2021/09/03 07:38:20;;;;;;;12.65;6.90;;;;;;;13.64;100.00;94227.66;5075565;28;20684;-77
2021/09/03 07:40:48;;;;;;;14.25;7.80;;;;;;;13.72;100.00;94228.41;5075694;28;20194;-78
2021/09/03 07:43:15;;;;;;;13.93;6.40;;;;;;;13.74;100.00;94226.38;5075429;28;20217;-78
2021/09/03 07:45:43;;;;;;;15.65;7.25;;;;;;;13.91;100.00;94222.28;5075348;28;20318;-78
2021/09/03 07:48:09;;;;;;;10.23;6.75;;;;;;;13.92;100.00;94228.31;5075674;28;20198;-77
2021/09/03 07:50:36;;;;;;;10.07;6.53;;;;;;;13.96;100.00;94225.09;5075723;28;20230;-77
2021/09/03 07:53:04;;;;;;;11.20;6.53;;;;;;;13.99;100.00;94222.03;5075641;28;20198;-77
2021/09/03 07:55:30;;;;;;;10.70;6.95;;;;;;;14.15;100.00;94217.31;5075411;28;20236;-78
2021/09/03 07:57:58;;;;;;;14.60;7.05;;;;;;;14.15;100.00;94218.09;5075367;28;20203;-77
2021/09/03 08:00:25;;;;;;;15.60;6.20;;;;;;;14.20;100.00;94217.47;5073590;28;20222;-80
2021/09/03 08:02:51;;;;;;;11.50;6.78;;;;;;;14.36;100.00;94214.34;5075240;28;20665;-80
2021/09/03 08:05:18;;;;;;;10.93;6.82;;;;;;;14.48;100.00;94221.53;5075143;28;20565;-80
2021/09/03 08:07:44;;;;;;;11.13;6.65;;;;;;;14.56;100.00;94213.41;5075244;28;20531;-79
2021/09/03 08:10:11;;;;;;;8.73;5.82;;;;;;;14.73;100.00;94216.31;5075749;28;20564;-80
2021/09/03 08:12:39;;;;;;;19.05;6.65;;;;;;;14.84;100.00;94215.63;5076199;28;20654;-78
2021/09/03 08:15:08;;;;;;;9.73;6.47;;;;;;;14.99;100.00;94205.56;5078412;28;20234;-79
2021/09/03 08:17:35;;;;;;;10.75;6.15;;;;;;;14.98;100.00;94218.94;5077162;28;20592;-81
2021/09/03 08:20:03;;;;;;;11.90;5.85;;;;;;;15.09;100.00;94212.97;5075005;28;20245;-78
2021/09/03 08:22:30;;;;;;;12.27;5.80;;;;;;;15.15;100.00;94214.72;5075028;28;20203;-80
2021/09/03 08:24:56;;;;;;;11.25;6.00;;;;;;;15.26;100.00;94217.66;5074878;28;20202;-80
2021/09/03 08:27:23;;;;;;;10.88;5.47;;;;;;;15.33;100.00;94218.38;5074557;28;20199;-81
2021/09/03 08:29:49;;;;;;;9.23;5.30;;;;;;;15.44;100.00;94215.03;5074961;28;20207;-83
2021/09/03 08:32:18;;;;;;;9.80;5.60;;;;;;;15.72;100.00;94218.94;5075014;28;20206;-81
2021/09/03 08:34:44;;;;;;;9.48;5.70;;;;;;;15.93;100.00;94222.19;5074723;28;20223;-81
2021/09/03 08:37:11;;;;;;;11.57;5.80;;;;;;;15.86;100.00;94217.00;5075630;28;20203;-82
2021/09/03 08:39:38;;;;;;;10.13;5.40;;;;;;;15.96;100.00;94216.47;5075879;28;20229;-81
2021/09/03 08:42:06;;;;;;;11.48;5.30;;;;;;;16.08;100.00;94217.31;5074452;28;20225;-81
2021/09/03 08:44:34;;;;;;;9.18;5.53;;;;;;;16.26;100.00;94216.47;5074628;28;20206;-79
2021/09/03 08:47:01;;;;;;;10.18;6.07;;;;;;;16.40;100.00;94219.69;5074551;28;20224;-78
2021/09/03 08:49:28;;;;;;;8.25;5.30;;;;;;;16.39;100.00;94226.03;5073839;28;20195;-78
2021/09/03 08:51:55;;;;;;;8.27;5.35;;;;;;;16.49;100.00;94221.00;5074129;28;20272;-80
2021/09/03 08:54:22;;;;;;;9.85;5.13;;;;;;;16.61;100.00;94218.38;5074092;28;20301;-81
2021/09/03 08:56:49;;;;;;;8.00;5.15;;;;;;;16.73;96.94;94221.81;5074030;28;20202;-81
2021/09/03 08:59:16;;;;;;;9.82;5.50;;;;;;;16.77;95.74;94222.16;5074489;28;20558;-83
2021/09/03 09:01:42;;;;;;;9.57;5.28;;;;;;;16.92;99.13;94219.94;5074025;28;20654;-81
2021/09/03 09:04:11;;;;;;;7.70;5.03;;;;;;;17.11;100.00;94214.56;5074017;28;20539;-79
2021/09/03 09:06:39;;;;;;;9.10;4.80;;;;;;;17.05;95.99;94226.03;5073965;28;20319;-80
2021/09/03 09:09:06;;;;;;;8.88;5.63;;;;;;;17.01;96.37;94215.91;5073497;28;20205;-79
2021/09/03 09:11:34;;;;;;;10.00;5.15;;;;;;;17.11;98.17;94220.63;5073580;28;20202;-79
2021/09/03 09:14:03;;;;;;;8.55;4.82;;;;;;;17.14;97.80;94220.16;5073871;28;20202;-80
2021/09/03 09:16:32;;;;;;;11.38;4.85;;;;;;;17.14;96.91;94216.75;5073810;28;20225;-80
2021/09/03 09:18:59;;;;;;;10.07;5.18;;;;;;;17.31;100.00;94222.13;5073315;28;20438;-81
2021/09/03 09:21:29;;;;;;;8.60;5.10;;;;;;;17.24;95.26;94222.25;5073449;28;20206;-82
2021/09/03 09:23:59;;;;;;;7.57;4.63;;;;;;;17.32;94.13;94219.25;5073510;28;20206;-80
2021/09/03 09:26:28;;;;;;;8.20;4.60;;;;;;;17.39;97.52;94225.19;5073704;28;20198;-79
2021/09/03 09:28:56;;;;;;;8.88;5.22;;;;;;;17.37;97.77;94219.34;5073753;28;20225;-79
2021/09/03 09:31:36;;;;;;;11.43;5.35;;;;;;;17.44;100.00;94210.53;5075695;28;20569;-82
2021/09/03 09:34:14;;;;;;;9.27;5.10;;;;;;;17.46;95.80;94214.50;5073335;28;20209;-81
2021/09/03 09:36:41;;;;;;;10.10;4.95;;;;;;;17.57;100.00;94207.63;5073291;28;20237;-81
2021/09/03 09:39:09;;;;;;;7.80;5.07;;;;;;;17.74;97.99;94211.13;5073312;28;20592;-82
2021/09/03 09:41:35;;;;;;;10.60;4.72;;;;;;;17.88;100.00;94200.31;5073395;28;20195;-82
2021/09/03 09:44:02;;;;;;;10.40;4.70;;;;;;;17.91;95.26;94202.50;5073243;28;20684;-80
2021/09/03 09:46:30;;;;;;;10.05;5.38;;;;;;;17.92;97.53;94201.47;5073052;28;20234;-79
2021/09/03 09:49:03;;;;;;;12.05;4.93;;;;;;;17.88;99.88;94205.59;5073404;28;20198;-81
2021/09/03 09:51:33;;;;;;;9.85;5.65;;;;;;;18.11;100.00;94202.88;5073351;28;20202;-79
2021/09/03 09:54:02;;;;;;;14.68;5.25;;;;;;;18.11;99.93;94197.59;5073247;28;20218;-79
2021/09/03 09:56:32;;;;;;;9.40;5.13;;;;;;;18.43;96.63;94202.38;5073182;28;20230;-77
2021/09/03 09:59:00;;;;;;;8.27;4.85;;;;;;;18.54;94.00;94191.97;5072991;28;20210;-79
2021/09/03 10:01:26;;;;;;;8.98;4.40;;;;;;;18.61;91.27;94198.69;5073242;28;20205;-78
2021/09/03 10:03:54;;;;;;;11.20;5.57;;;;;;;18.79;95.18;94196.88;5072237;28;20438;-78
2021/09/03 10:06:22;;;;;;;7.60;4.47;;;;;;;18.63;87.82;94193.16;5072960;28;20210;-79
2021/09/03 10:08:50;;;;;;;8.80;4.75;;;;;;;18.72;94.16;94188.28;5073073;28;20195;-80
2021/09/03 10:11:17;;;;;;;8.45;4.88;;;;;;;18.83;96.93;94190.06;5072641;28;20555;-78
2021/09/03 10:13:45;;;;;;;9.25;4.75;;;;;;;19.00;86.98;94192.69;5072917;28;20202;-78
2021/09/03 10:16:12;;;;;;;7.68;5.22;;;;;;;18.99;92.70;94191.91;5072776;28;20234;-79
2021/09/03 10:18:40;;;;;;;8.30;4.63;;;;;;;19.12;90.07;94182.84;5072641;28;20672;-78
2021/09/03 10:21:08;;;;;;;9.93;5.13;;;;;;;19.14;86.33;94185.25;5072974;28;20195;-78
2021/09/03 10:23:55;;;;;;;8.50;4.80;;;;;;;18.96;86.47;94184.44;5072194;28;20203;-78
2021/09/03 10:26:26;;;;;;;12.88;4.88;;;;;;;18.94;89.60;94188.41;5073167;28;20599;-78
2021/09/03 10:29:21;;;;;;;9.85;4.53;;;;;;;19.07;90.29;94185.41;5073025;28;20214;-78
2021/09/03 10:32:35;;;;;;;8.02;4.53;;;;;;;19.02;86.26;94194.06;5072440;28;20207;-78
2021/09/03 10:35:13;;;;;;;10.43;4.95;;;;;;;19.09;90.72;94191.25;5072334;28;20642;-78
2021/09/03 10:37:39;;;;;;;6.95;4.25;;;;;;;19.08;87.18;94183.56;5072690;28;20207;-78
2021/09/03 10:40:12;;;;;;;8.95;4.57;;;;;;;19.14;89.42;94190.53;5072755;28;20206;-78
2021/09/03 10:42:51;;;;;;;6.43;4.45;;;;;;;19.25;90.10;94186.16;5072637;28;20199;-78
2021/09/03 10:45:22;;;;;;;10.20;5.50;;;;;;;19.29;89.32;94182.78;5072674;28;20281;-78
2021/09/03 10:47:58;;;;;;;9.23;5.18;;;;;;;19.41;85.97;94172.09;5071417;28;20434;-79
2021/09/03 10:50:26;;;;;;;7.93;4.63;;;;;;;19.22;84.29;94177.69;5071283;28;20531;-78
2021/09/03 10:53:16;;;;;;;11.15;4.45;;;;;;;19.28;85.61;94175.88;5072314;28;20202;-78
2021/09/03 10:56:06;;;;;;;7.82;4.95;;;;;;;19.43;85.87;94172.63;5072707;28;20230;-79
2021/09/03 10:58:38;;;;;;;9.18;4.60;;;;;;;19.64;82.19;94167.63;5072604;28;20579;-80
2021/09/03 11:01:49;;;;;;;7.15;4.53;;;;;;;19.82;84.82;94166.50;5072590;28;20230;-80
2021/09/03 11:04:17;;;;;;;6.18;3.83;;;;;;;19.95;76.73;94171.41;5072348;28;20207;-79
2021/09/03 11:06:51;;;;;;;7.32;4.20;;;;;;;19.83;74.99;94170.75;5072360;28;20199;-78
2021/09/03 11:09:23;;;;;;;7.85;3.80;;;;;;;19.85;78.16;94166.81;5072499;28;20204;-79
2021/09/03 11:11:51;;;;;;;5.47;3.92;;;;;;;20.03;77.31;94165.66;5072059;28;20281;-78
2021/09/03 11:14:19;;;;;;;6.70;3.80;;;;;;;20.14;78.09;94171.88;5072247;28;20626;-78
2021/09/03 11:16:50;;;;;;;7.32;4.20;;;;;;;20.13;73.24;94168.44;5072143;28;20226;-78
2021/09/03 11:19:20;;;;;;;5.88;3.88;;;;;;;20.25;76.98;94165.66;5072209;28;20226;-78
2021/09/03 11:21:50;;;;;;;7.32;4.00;;;;;;;20.06;75.30;94172.34;5072273;28;20234;-79
2021/09/03 11:24:18;;;;;;;7.45;4.18;;;;;;;20.01;77.38;94169.63;5072314;28;20202;-78